createdAt,value
2024-01-26T00:02:10.820Z,16.58
2024-01-26T00:04:43.546Z,14.65
2024-01-26T00:07:11.380Z,15.40
2024-01-26T00:09:54.226Z,16.10
2024-01-26T00:12:39.340Z,15.50
2024-01-26T00:15:09.913Z,15.48
2024-01-26T00:17:37.833Z,15.20
2024-01-26T00:20:15.740Z,15.55
2024-01-26T00:22:51.671Z,13.00
2024-01-26T00:25:38.671Z,11.85
2024-01-26T00:28:13.344Z,10.55
2024-01-26T00:30:49.009Z,12.90
2024-01-26T00:33:16.905Z,13.73
2024-01-26T00:35:51.525Z,13.95
2024-01-26T00:38:26.721Z,15.30
2024-01-26T00:41:03.040Z,15.25
2024-01-26T00:43:44.079Z,14.52
2024-01-26T00:46:20.294Z,14.32
2024-01-26T00:48:52.750Z,13.85
2024-01-26T00:51:25.344Z,13.82
2024-01-26T00:53:57.319Z,13.35
2024-01-26T00:56:27.871Z,12.35
2024-01-26T00:58:58.376Z,11.15
2024-01-26T01:01:35.593Z,12.27
2024-01-26T01:04:03.310Z,13.35
2024-01-26T01:06:31.210Z,13.52
2024-01-26T01:08:58.934Z,15.50
2024-01-26T01:11:26.542Z,14.43
2024-01-26T01:13:57.759Z,12.80
2024-01-26T01:16:25.235Z,15.13
2024-01-26T01:18:56.457Z,14.05
2024-01-26T01:21:28.843Z,13.88
2024-01-26T01:24:06.794Z,13.30
2024-01-26T01:26:36.091Z,13.68
2024-01-26T01:29:12.223Z,13.80
2024-01-26T01:31:42.201Z,13.15
2024-01-26T01:34:11.370Z,13.05
2024-01-26T01:36:39.135Z,13.82
2024-01-26T01:39:09.119Z,12.85
2024-01-26T01:41:36.795Z,13.23
2024-01-26T01:44:04.356Z,12.75
2024-01-26T01:46:32.268Z,12.55
2024-01-26T01:49:00.218Z,12.85
2024-01-26T01:51:30.417Z,13.13
2024-01-26T01:53:58.776Z,13.48
2024-01-26T01:56:26.743Z,12.45
2024-01-26T01:58:55.841Z,12.68
2024-01-26T02:01:23.444Z,12.10
2024-01-26T02:03:51.083Z,11.07
2024-01-26T02:06:18.778Z,11.50
2024-01-26T02:08:47.831Z,11.63
2024-01-26T02:11:15.750Z,11.45
2024-01-26T02:13:43.409Z,9.23
2024-01-26T02:16:11.097Z,8.98
2024-01-26T02:18:39.040Z,9.18
2024-01-26T02:21:06.881Z,9.30
2024-01-26T02:23:43.023Z,9.48
2024-01-26T02:26:11.218Z,10.00
2024-01-26T02:28:38.900Z,10.27
2024-01-26T02:31:06.713Z,11.40
2024-01-26T02:33:34.910Z,10.98
2024-01-26T02:36:02.855Z,10.15
2024-01-26T02:38:31.444Z,9.77
2024-01-26T02:41:00.488Z,8.30
2024-01-26T02:43:28.756Z,9.00
2024-01-26T02:45:57.241Z,10.35
2024-01-26T02:48:25.851Z,9.43
2024-01-26T02:50:53.495Z,9.57
2024-01-26T02:53:21.114Z,9.45
2024-01-26T02:55:48.768Z,8.52
2024-01-26T02:58:17.987Z,7.57
2024-01-26T03:00:45.681Z,6.05
2024-01-26T03:03:13.645Z,4.10
2024-01-26T03:05:42.881Z,4.45
2024-01-26T03:08:10.593Z,3.00
2024-01-26T03:10:38.516Z,3.13
2024-01-26T03:13:06.069Z,3.13
2024-01-26T03:15:35.146Z,2.80
2024-01-26T03:18:02.848Z,2.58
2024-01-26T03:20:36.032Z,2.45
2024-01-26T03:23:03.676Z,2.20
2024-01-26T03:25:31.424Z,2.42
2024-01-26T03:27:59.258Z,2.30
2024-01-26T03:30:26.896Z,1.85
2024-01-26T03:32:56.032Z,2.00
2024-01-26T03:35:24.030Z,1.95
2024-01-26T03:37:51.789Z,1.90
2024-01-26T03:40:19.838Z,2.08
2024-01-26T03:42:47.434Z,2.10
2024-01-26T03:45:15.301Z,2.25
2024-01-26T03:47:43.009Z,1.98
2024-01-26T03:50:12.306Z,2.00
2024-01-26T03:52:39.824Z,2.00
2024-01-26T03:55:09.014Z,2.58
2024-01-26T03:57:39.545Z,1.80
2024-01-26T04:00:09.623Z,1.80
2024-01-26T04:02:37.198Z,2.10
2024-01-26T04:05:04.974Z,2.25
2024-01-26T04:07:35.838Z,2.97
2024-01-26T04:10:03.374Z,2.33
2024-01-26T04:12:30.915Z,2.90
2024-01-26T04:14:58.793Z,2.50
2024-01-26T04:17:26.558Z,3.38
2024-01-26T04:19:58.275Z,2.72
2024-01-26T04:22:26.174Z,3.45
2024-01-26T04:24:55.239Z,3.00
2024-01-26T04:27:23.261Z,16.15
2024-01-26T04:29:51.265Z,5.95
2024-01-26T04:32:19.969Z,2.70
2024-01-26T04:34:47.772Z,2.75
2024-01-26T04:37:15.825Z,2.70
2024-01-26T04:39:44.294Z,2.50
2024-01-26T04:42:13.808Z,2.60
2024-01-26T04:44:41.399Z,2.85
2024-01-26T04:47:09.202Z,2.15
2024-01-26T04:49:37.238Z,2.35
2024-01-26T04:52:05.900Z,2.53
2024-01-26T04:54:33.401Z,2.13
2024-01-26T04:57:01.800Z,2.00
2024-01-26T04:59:30.702Z,1.90
2024-01-26T05:01:58.358Z,1.95
2024-01-26T05:04:26.071Z,1.63
2024-01-26T05:06:53.673Z,1.40
2024-01-26T05:09:21.436Z,1.60
2024-01-26T05:11:49.798Z,1.30
2024-01-26T05:14:17.371Z,1.30
2024-01-26T05:16:46.287Z,1.60
2024-01-26T05:19:15.208Z,1.48
2024-01-26T05:21:42.987Z,1.40
2024-01-26T05:24:10.597Z,1.50
2024-01-26T05:26:38.940Z,1.40
2024-01-26T05:29:08.977Z,1.50
2024-01-26T05:31:36.731Z,1.33
2024-01-26T05:34:06.512Z,1.40
2024-01-26T05:36:34.167Z,1.30
2024-01-26T05:39:01.840Z,1.55
2024-01-26T05:41:29.465Z,1.50
2024-01-26T05:43:57.081Z,1.50
2024-01-26T05:46:24.635Z,1.20
2024-01-26T05:48:52.593Z,1.20
2024-01-26T05:51:21.698Z,1.63
2024-01-26T05:53:49.306Z,1.60
2024-01-26T05:56:16.833Z,1.50
2024-01-26T05:58:44.380Z,1.45
2024-01-26T06:01:12.036Z,2.00
2024-01-26T06:03:39.797Z,1.73
2024-01-26T06:06:09.048Z,2.08
2024-01-26T06:08:39.662Z,2.30
2024-01-26T06:11:07.955Z,1.80
2024-01-26T06:13:35.585Z,3.58
2024-01-26T06:16:03.669Z,2.58
2024-01-26T06:18:31.403Z,3.33
2024-01-26T06:20:59.126Z,3.95
2024-01-26T06:23:26.638Z,3.45
2024-01-26T06:25:55.772Z,3.13
2024-01-26T06:28:23.348Z,2.83
2024-01-26T06:30:50.951Z,2.55
2024-01-26T06:33:18.939Z,1.92
2024-01-26T06:35:46.899Z,2.10
2024-01-26T06:38:16.886Z,2.85
2024-01-26T06:40:45.828Z,2.03
2024-01-26T06:43:17.787Z,1.80
2024-01-26T06:45:45.976Z,2.20
2024-01-26T06:48:13.560Z,1.80
2024-01-26T06:50:41.106Z,1.50
2024-01-26T06:53:10.853Z,1.90
2024-01-26T06:55:38.493Z,1.80
2024-01-26T06:58:06.007Z,1.80
2024-01-26T07:00:35.392Z,2.25
2024-01-26T07:03:03.156Z,3.10
2024-01-26T07:05:30.880Z,2.60
2024-01-26T07:07:58.681Z,2.25
2024-01-26T07:10:26.150Z,2.30
2024-01-26T07:12:54.372Z,1.92
2024-01-26T07:15:21.955Z,1.75
2024-01-26T07:17:51.024Z,1.63
2024-01-26T07:20:20.857Z,1.80
2024-01-26T07:22:48.499Z,1.85
2024-01-26T07:25:20.192Z,1.60
2024-01-26T07:27:47.782Z,2.10
2024-01-26T07:30:16.709Z,1.55
2024-01-26T07:32:44.424Z,1.80
2024-01-26T07:35:13.358Z,2.22
2024-01-26T07:37:42.294Z,2.05
2024-01-26T07:40:10.740Z,1.85
2024-01-26T07:42:38.283Z,2.10
2024-01-26T07:45:06.291Z,1.85
2024-01-26T07:47:36.152Z,1.70
2024-01-26T07:50:03.951Z,1.48
2024-01-26T07:52:32.829Z,1.42
2024-01-26T07:55:00.407Z,1.80
2024-01-26T07:57:27.986Z,1.40
2024-01-26T07:59:55.649Z,1.35
2024-01-26T08:02:23.299Z,1.55
2024-01-26T08:04:50.925Z,1.35
2024-01-26T08:07:18.878Z,1.20
2024-01-26T08:09:47.901Z,1.40
2024-01-26T08:12:24.765Z,1.27
2024-01-26T08:15:01.684Z,1.50
2024-01-26T08:17:29.717Z,1.35
2024-01-26T08:19:58.501Z,1.42
2024-01-26T08:22:27.344Z,1.30
2024-01-26T08:24:59.431Z,1.20
2024-01-26T08:27:27.837Z,1.13
2024-01-26T08:29:55.656Z,1.40
2024-01-26T08:32:23.284Z,1.27
2024-01-26T08:34:51.254Z,1.10
2024-01-26T08:37:19.050Z,1.30
2024-01-26T08:39:46.703Z,1.17
2024-01-26T08:42:16.081Z,1.48
2024-01-26T08:44:43.889Z,1.48
2024-01-26T08:47:11.637Z,1.50
2024-01-26T08:49:39.168Z,1.50
2024-01-26T08:52:07.154Z,1.50
2024-01-26T08:54:34.762Z,1.80
2024-01-26T08:57:02.854Z,1.40
2024-01-26T08:59:31.880Z,1.30
2024-01-26T09:01:59.552Z,1.52
2024-01-26T09:04:29.889Z,1.30
2024-01-26T09:07:04.489Z,1.50
2024-01-26T09:09:37.699Z,1.50
2024-01-26T09:12:06.720Z,1.45
2024-01-26T09:14:36.437Z,1.38
2024-01-26T09:17:04.315Z,1.20
2024-01-26T09:19:32.006Z,1.50
2024-01-26T09:21:59.660Z,1.40
2024-01-26T09:24:28.015Z,2.05
2024-01-26T09:26:57.066Z,1.50
2024-01-26T09:29:26.439Z,1.35
2024-01-26T09:32:05.762Z,1.23
2024-01-26T09:34:33.779Z,1.23
2024-01-26T09:37:01.602Z,1.60
2024-01-26T09:39:29.483Z,1.30
2024-01-26T09:41:57.691Z,1.30
2024-01-26T09:44:25.298Z,1.30
2024-01-26T09:46:52.876Z,1.60
2024-01-26T09:49:22.313Z,1.70
2024-01-26T09:51:50.153Z,1.52
2024-01-26T09:54:20.352Z,1.60
2024-01-26T09:56:48.420Z,1.50
2024-01-26T09:59:16.223Z,1.58
2024-01-26T10:01:44.689Z,1.40
2024-01-26T10:04:12.448Z,1.75
2024-01-26T10:06:41.587Z,1.50
2024-01-26T10:09:11.327Z,1.80
2024-01-26T10:11:39.022Z,1.40
2024-01-26T10:14:06.750Z,1.90
2024-01-26T10:16:34.441Z,1.92
2024-01-26T10:19:02.482Z,1.60
2024-01-26T10:21:30.288Z,2.35
2024-01-26T10:23:59.692Z,2.17
2024-01-26T10:26:29.583Z,2.58
2024-01-26T10:28:58.336Z,1.83
2024-01-26T10:31:26.404Z,2.00
2024-01-26T10:33:56.735Z,1.63
2024-01-26T10:36:25.150Z,1.30
2024-01-26T10:38:54.360Z,1.80
2024-01-26T10:41:26.508Z,1.50
2024-01-26T10:43:56.581Z,1.73
2024-01-26T10:46:24.890Z,1.75
2024-01-26T10:48:53.519Z,1.60
2024-01-26T10:51:23.301Z,1.80
2024-01-26T10:53:52.959Z,5.28
2024-01-26T10:56:20.540Z,2.78
2024-01-26T10:58:49.544Z,2.20
2024-01-26T11:01:17.161Z,3.55
2024-01-26T11:03:45.516Z,2.25
2024-01-26T11:06:14.905Z,2.45
2024-01-26T11:08:42.999Z,2.00
2024-01-26T11:11:10.632Z,2.00
2024-01-26T11:13:38.636Z,1.60
2024-01-26T11:16:09.241Z,1.73
2024-01-26T11:18:37.626Z,1.73
2024-01-26T11:21:05.787Z,1.60
2024-01-26T11:23:37.032Z,1.70
2024-01-26T11:26:04.709Z,1.60
2024-01-26T11:28:32.927Z,1.45
2024-01-26T11:31:01.408Z,1.70
2024-01-26T11:33:39.188Z,1.60
2024-01-26T11:36:08.379Z,1.83
2024-01-26T11:38:36.214Z,1.70
2024-01-26T11:41:04.082Z,1.60
2024-01-26T11:43:33.029Z,1.80
2024-01-26T11:46:00.673Z,1.80
2024-01-26T11:48:28.329Z,1.77
2024-01-26T11:50:58.479Z,1.50
2024-01-26T11:53:26.571Z,1.55
2024-01-26T11:55:55.303Z,1.90
2024-01-26T11:58:23.339Z,1.60
2024-01-26T12:00:50.893Z,3.28
2024-01-26T12:03:21.532Z,1.70
2024-01-26T12:05:59.779Z,2.28
2024-01-26T12:08:28.252Z,1.70
2024-01-26T12:10:56.301Z,1.60
2024-01-26T12:13:24.283Z,1.70
2024-01-26T12:15:51.881Z,1.50
2024-01-26T12:18:19.653Z,2.00
2024-01-26T12:20:48.943Z,1.90
2024-01-26T12:23:18.574Z,4.22
2024-01-26T12:25:51.203Z,1.85
2024-01-26T12:28:19.163Z,2.85
2024-01-26T12:30:47.712Z,1.92
2024-01-26T12:33:16.604Z,1.70
2024-01-26T12:35:44.888Z,1.95
2024-01-26T12:38:15.522Z,1.95
2024-01-26T12:40:47.141Z,2.20
2024-01-26T12:43:17.856Z,2.47
2024-01-26T12:45:45.391Z,2.05
2024-01-26T12:48:13.103Z,2.90
2024-01-26T12:50:40.857Z,2.13
2024-01-26T12:53:10.374Z,1.88
2024-01-26T12:55:37.881Z,1.98
2024-01-26T12:58:07.622Z,1.40
2024-01-26T13:00:35.454Z,1.55
2024-01-26T13:03:04.383Z,1.60
2024-01-26T13:05:32.254Z,1.60
2024-01-26T13:07:59.876Z,1.70
2024-01-26T13:10:28.507Z,1.70
2024-01-26T13:12:56.164Z,1.60
2024-01-26T13:15:25.707Z,1.80
2024-01-26T13:17:53.878Z,1.80
2024-01-26T13:20:21.846Z,1.80
2024-01-26T13:22:50.370Z,1.92
2024-01-26T13:25:18.311Z,1.67
2024-01-26T13:27:46.424Z,2.05
2024-01-26T13:30:15.586Z,2.30
2024-01-26T13:32:47.064Z,1.88
2024-01-26T13:35:15.043Z,2.13
2024-01-26T13:37:42.929Z,1.95
2024-01-26T13:40:11.403Z,2.00
2024-01-26T13:42:39.228Z,2.00
2024-01-26T13:45:13.021Z,1.80
2024-01-26T13:47:41.967Z,2.08
2024-01-26T13:50:14.048Z,2.10
2024-01-26T13:52:41.821Z,2.08
2024-01-26T13:55:09.774Z,2.13
2024-01-26T13:57:38.269Z,2.08
2024-01-26T14:00:20.622Z,2.70
2024-01-26T14:02:50.450Z,2.20
2024-01-26T14:05:19.601Z,1.95
2024-01-26T14:07:47.428Z,2.30
2024-01-26T14:10:15.874Z,2.30
2024-01-26T14:12:43.952Z,2.60
2024-01-26T14:15:12.681Z,2.33
2024-01-26T14:17:42.077Z,2.50
2024-01-26T14:20:10.109Z,2.63
2024-01-26T14:22:39.137Z,2.40
2024-01-26T14:25:07.306Z,2.22
2024-01-26T14:27:34.991Z,2.67
2024-01-26T14:30:02.715Z,2.90
2024-01-26T14:32:32.885Z,2.60
2024-01-26T14:35:00.664Z,3.17
2024-01-26T14:37:30.278Z,3.58
2024-01-26T14:40:00.002Z,3.65
2024-01-26T14:42:27.580Z,3.30
2024-01-26T14:44:55.532Z,3.08
2024-01-26T14:47:24.376Z,2.60
2024-01-26T14:49:52.569Z,2.88
2024-01-26T14:52:22.370Z,2.50
2024-01-26T14:54:49.910Z,3.05
2024-01-26T14:57:19.578Z,2.15
2024-01-26T14:59:47.281Z,2.47
2024-01-26T15:02:14.861Z,2.42
2024-01-26T15:04:43.577Z,2.55
2024-01-26T15:07:11.639Z,2.60
2024-01-26T15:09:39.760Z,2.03
2024-01-26T15:12:07.961Z,2.40
2024-01-26T15:14:37.080Z,2.15
2024-01-26T15:17:05.336Z,2.33
2024-01-26T15:22:00.433Z,2.22
2024-01-26T15:24:28.077Z,2.05
2024-01-26T15:26:55.734Z,2.25
2024-01-26T15:29:25.654Z,2.03
2024-01-26T15:31:54.793Z,2.58
2024-01-26T15:34:22.615Z,1.92
2024-01-26T15:36:50.702Z,2.78
2024-01-26T15:39:20.125Z,3.03
2024-01-26T15:41:47.761Z,3.55
2024-01-26T15:44:15.492Z,3.10
2024-01-26T15:46:43.269Z,2.90
2024-01-26T15:49:12.408Z,2.65
2024-01-26T15:51:39.984Z,2.53
2024-01-26T15:54:07.564Z,3.53
2024-01-26T15:56:35.150Z,2.95
2024-01-26T15:59:02.828Z,2.50
2024-01-26T16:01:30.404Z,2.38
2024-01-26T16:03:58.605Z,2.85
2024-01-26T16:06:27.768Z,2.78
2024-01-26T16:08:55.360Z,2.30
2024-01-26T16:11:24.775Z,1.42
2024-01-26T16:13:55.694Z,1.30
2024-01-26T16:16:29.297Z,1.50
2024-01-26T16:18:57.618Z,1.38
2024-01-26T16:21:25.394Z,1.30
2024-01-26T16:24:16.658Z,1.40
2024-01-26T16:26:54.620Z,1.67
2024-01-26T16:29:22.585Z,1.40
2024-01-26T16:31:51.015Z,1.83
2024-01-26T16:34:24.196Z,1.38
2024-01-26T16:36:52.008Z,1.70
2024-01-26T16:39:30.217Z,2.05
2024-01-26T16:42:02.075Z,1.83
2024-01-26T16:44:29.678Z,1.80
2024-01-26T16:46:57.280Z,1.98
2024-01-26T16:49:24.964Z,1.90
2024-01-26T16:51:52.906Z,1.95
2024-01-26T16:54:20.648Z,1.77
2024-01-26T16:56:54.276Z,2.10
2024-01-26T16:59:22.572Z,2.10
2024-01-26T17:01:55.708Z,2.00
2024-01-26T17:04:26.198Z,2.20
2024-01-26T17:06:54.459Z,2.28
2024-01-26T17:09:25.030Z,2.38
2024-01-26T17:11:54.267Z,2.20
2024-01-26T17:14:21.825Z,2.35
2024-01-26T17:16:49.652Z,2.20
2024-01-26T17:19:17.334Z,2.67
2024-01-26T17:21:46.183Z,2.65
2024-01-26T17:24:14.061Z,2.97
2024-01-26T17:26:41.926Z,2.28
2024-01-26T17:29:10.922Z,2.22
2024-01-26T17:31:41.354Z,2.60
2024-01-26T17:34:10.748Z,2.00
2024-01-26T17:36:39.463Z,2.00
2024-01-26T17:39:07.267Z,2.17
2024-01-26T17:41:42.959Z,1.73
2024-01-26T17:44:14.941Z,1.73
2024-01-26T17:46:48.357Z,2.60
2024-01-26T17:49:17.404Z,1.70
2024-01-26T17:51:45.254Z,1.70
2024-01-26T17:54:13.346Z,1.80
2024-01-26T17:56:54.055Z,1.90
2024-01-26T17:59:28.519Z,2.05
2024-01-26T18:02:25.168Z,2.22
2024-01-26T18:05:01.788Z,1.60
2024-01-26T18:07:29.384Z,2.13
2024-01-26T18:09:56.989Z,1.83
2024-01-26T18:12:24.681Z,2.00
2024-01-26T18:14:53.927Z,2.33
2024-01-26T18:17:21.496Z,2.13
2024-01-26T18:19:57.138Z,2.42
2024-01-26T18:22:24.780Z,2.90
2024-01-26T18:24:52.326Z,2.83
2024-01-26T18:27:20.009Z,2.45
2024-01-26T18:29:47.601Z,2.78
2024-01-26T18:32:16.592Z,3.00
2024-01-26T18:34:44.330Z,3.40
2024-01-26T18:37:15.609Z,3.13
2024-01-26T18:39:43.922Z,2.30
2024-01-26T18:42:11.441Z,2.15
2024-01-26T18:44:39.507Z,1.90
2024-01-26T18:47:07.540Z,2.00
2024-01-26T18:49:41.261Z,1.90
2024-01-26T18:52:09.269Z,2.10
2024-01-26T18:54:38.080Z,1.95
2024-01-26T18:57:07.129Z,2.13
2024-01-26T18:59:36.106Z,1.95
2024-01-26T19:02:04.469Z,1.80
2024-01-26T19:04:33.086Z,2.40
2024-01-26T19:07:04.957Z,2.13
2024-01-26T19:09:34.137Z,2.10
2024-01-26T19:12:05.053Z,2.50
2024-01-26T19:14:33.355Z,1.80
2024-01-26T19:17:01.134Z,2.10
2024-01-26T19:19:28.813Z,1.80
2024-01-26T19:21:56.957Z,2.30
2024-01-26T19:24:26.262Z,2.17
2024-01-26T19:26:54.193Z,1.92
2024-01-26T19:29:21.862Z,2.70
2024-01-26T19:31:55.189Z,3.50
2024-01-26T19:34:24.693Z,3.67
2024-01-26T19:36:53.581Z,4.22
2024-01-26T19:39:21.153Z,4.10
2024-01-26T19:41:51.470Z,3.78
2024-01-26T19:44:19.020Z,4.20
2024-01-26T19:46:46.572Z,3.88
2024-01-26T19:49:14.295Z,5.30
2024-01-26T19:51:42.294Z,4.93
2024-01-26T19:54:10.513Z,3.65
2024-01-26T19:56:40.448Z,3.13
2024-01-26T19:59:09.504Z,3.70
2024-01-26T20:01:37.038Z,3.15
2024-01-26T20:04:04.855Z,3.58
2024-01-26T20:06:32.549Z,3.55
2024-01-26T20:09:00.278Z,3.13
2024-01-26T20:11:28.038Z,3.42
2024-01-26T20:13:55.850Z,4.00
2024-01-26T20:16:24.821Z,3.60
2024-01-26T20:18:52.828Z,3.55
2024-01-26T20:21:20.631Z,5.55
2024-01-26T20:23:49.649Z,6.28
2024-01-26T20:26:18.386Z,13.25
2024-01-26T20:28:47.112Z,11.07
2024-01-26T20:31:15.123Z,7.38
2024-01-26T20:33:46.226Z,8.95
2024-01-26T20:36:15.091Z,7.45
2024-01-26T20:38:44.228Z,7.15
2024-01-26T20:41:11.887Z,6.90
2024-01-26T20:43:39.438Z,6.22
2024-01-26T20:46:09.060Z,4.80
2024-01-26T20:48:37.090Z,5.07
2024-01-26T20:51:06.312Z,5.05
2024-01-26T20:53:35.649Z,4.55
2024-01-26T20:56:03.918Z,5.13
2024-01-26T20:58:32.196Z,5.13
2024-01-26T21:00:59.808Z,4.60
2024-01-26T21:03:27.499Z,4.60
2024-01-26T21:05:57.016Z,4.43
2024-01-26T21:08:27.087Z,4.50
2024-01-26T21:10:54.707Z,4.15
2024-01-26T21:13:22.322Z,4.43
2024-01-26T21:15:50.655Z,3.80
2024-01-26T21:18:18.271Z,2.72
2024-01-26T21:20:46.257Z,3.13
2024-01-26T21:23:13.935Z,3.35
2024-01-26T21:25:42.939Z,3.70
2024-01-26T21:28:10.846Z,3.30
2024-01-26T21:30:38.477Z,3.17
2024-01-26T21:33:06.967Z,3.40
2024-01-26T21:35:35.546Z,3.40
2024-01-26T21:38:04.091Z,2.95
2024-01-26T21:40:31.915Z,3.80
2024-01-26T21:43:01.252Z,4.00
2024-01-26T21:45:28.917Z,4.77
2024-01-26T21:47:56.665Z,3.88
2024-01-26T21:50:25.082Z,4.43
2024-01-26T21:52:52.868Z,5.00
2024-01-26T21:55:21.012Z,3.87
2024-01-26T21:57:48.743Z,5.03
2024-01-26T22:00:18.363Z,4.95
2024-01-26T22:02:48.116Z,7.22
2024-01-26T22:05:16.051Z,8.18
2024-01-26T22:07:46.741Z,7.07
2024-01-26T22:10:14.335Z,7.33
2024-01-26T22:12:42.033Z,5.33
2024-01-26T22:15:10.442Z,5.40
2024-01-26T22:17:39.905Z,5.17
2024-01-26T22:20:07.929Z,4.83
2024-01-26T22:22:35.465Z,4.87
2024-01-26T22:25:03.342Z,4.27
2024-01-26T22:27:30.931Z,3.77
2024-01-26T22:29:58.952Z,3.50
2024-01-26T22:32:27.050Z,4.23
2024-01-26T22:34:56.013Z,3.43
2024-01-26T22:37:23.960Z,3.83
2024-01-26T22:39:52.592Z,3.20
2024-01-26T22:42:21.170Z,3.00
2024-01-26T22:44:48.832Z,3.93
2024-01-26T22:47:16.389Z,3.93
2024-01-26T22:49:44.199Z,3.70
2024-01-26T22:52:13.819Z,3.60
2024-01-26T22:54:41.328Z,3.60
2024-01-26T22:57:08.952Z,4.03
2024-01-26T22:59:36.579Z,3.42
2024-01-26T23:02:04.278Z,4.40
2024-01-26T23:04:31.899Z,4.53
2024-01-26T23:06:59.679Z,3.97
2024-01-26T23:09:28.752Z,7.60
2024-01-26T23:11:56.422Z,6.73
2024-01-26T23:14:24.644Z,5.33
2024-01-26T23:16:52.160Z,5.20
2024-01-26T23:19:19.889Z,5.07
2024-01-26T23:21:47.834Z,5.00
2024-01-26T23:24:15.488Z,4.83
2024-01-26T23:26:44.900Z,4.97
2024-01-26T23:29:12.585Z,4.73
2024-01-26T23:31:40.515Z,4.80
2024-01-26T23:34:08.193Z,4.83
2024-01-26T23:36:36.192Z,4.47
2024-01-26T23:39:05.648Z,4.30
2024-01-26T23:41:33.256Z,4.30
2024-01-26T23:44:02.254Z,4.30
2024-01-26T23:46:29.720Z,3.97
2024-01-26T23:48:57.285Z,3.27
2024-01-26T23:51:25.110Z,3.10
2024-01-26T23:53:55.897Z,3.40
2024-01-26T23:56:23.777Z,3.33
2024-01-26T23:58:51.309Z,3.17
